Time;durP1;ratioP1;P1;durP2;ratioP2;P2;SDS_P1;SDS_P2;PMS_P1;PMS_P2;Temp;Humidity;BMP_temperature;BMP_pressure;BME280_temperature;BME280_humidity;BME280_pressure;Samples;Min_cycle;Max_cycle;Signal;HPM_P1;HPM_P2
2022/03/05 00:02:04;;;;;;;2.92;1.38;;;;;;;-0.51;56.78;99528.16;5038457;28;20049;-81
2022/03/05 00:04:31;;;;;;;1.85;1.58;;;;;;;-0.18;57.18;99566.31;5053892;28;20175;-81
2022/03/05 00:06:58;;;;;;;1.80;1.27;;;;;;;-0.18;56.83;99576.59;5053214;28;20061;-82
2022/03/05 00:09:28;;;;;;;2.83;1.23;;;;;;;-0.25;56.67;99561.75;5052769;28;20041;-83
2022/03/05 00:11:54;;;;;;;3.00;1.23;;;;;;;-0.29;56.85;99567.56;5052329;28;20092;-81
2022/03/05 00:14:21;;;;;;;1.67;1.15;;;;;;;-0.38;56.76;99529.56;5050089;28;20493;-82
2022/03/05 00:16:48;;;;;;;2.65;1.27;;;;;;;-0.30;56.46;99564.13;5049276;28;20129;-82
2022/03/05 00:19:15;;;;;;;2.67;1.08;;;;;;;-0.29;55.88;99567.56;5052328;28;20041;-85
2022/03/05 00:21:42;;;;;;;2.42;1.00;;;;;;;-0.29;56.18;99558.16;5048275;28;20095;-83
2022/03/05 00:24:10;;;;;;;1.27;1.08;;;;;;;-0.29;56.12;99571.00;5050193;28;20049;-84
2022/03/05 00:26:36;;;;;;;1.23;1.10;;;;;;;-0.43;55.92;99526.81;5053452;28;20049;-83
2022/03/05 00:29:04;;;;;;;3.00;1.20;;;;;;;-0.43;55.73;99528.47;5052059;28;20118;-80
2022/03/05 00:31:31;;;;;;;3.47;1.17;;;;;;;-0.36;56.04;99539.91;5053084;28;20405;-83
2022/03/05 00:34:01;;;;;;;;;;;;;;;-0.29;56.58;99554.72;5054503;28;20072;-86
2022/03/05 00:36:30;;;;;;;1.92;1.30;;;;;;;-0.44;56.23;99511.34;5058566;28;19932;-80
2022/03/05 00:38:57;;;;;;;1.85;1.27;;;;;;;-0.39;55.92;99519.22;5057069;28;20041;-85
2022/03/05 00:41:24;;;;;;;2.38;1.80;;;;;;;-0.23;56.45;99553.28;5054110;28;20049;-84
2022/03/05 00:43:51;;;;;;;2.58;1.42;;;;;;;-0.49;56.42;99502.56;5054708;28;20081;-80
2022/03/05 00:46:18;;;;;;;2.63;1.50;;;;;;;-0.28;56.58;99546.19;5054058;28;20053;-83
2022/03/05 00:48:45;;;;;;;2.20;1.33;;;;;;;-0.35;56.84;99521.09;5058826;28;20063;-80
2022/03/05 00:51:12;;;;;;;5.20;2.22;;;;;;;-0.26;56.53;99534.31;5068914;28;20065;-80
2022/03/05 00:53:39;;;;;;;1.77;1.10;;;;;;;-0.09;56.51;99558.09;5068561;28;20059;-80
2022/03/05 00:56:07;;;;;;;3.90;1.60;;;;;;;-0.09;56.70;99560.69;5065424;28;20497;-80
2022/03/05 00:58:34;;;;;;;2.17;1.55;;;;;;;-0.31;56.71;99513.59;5057429;28;20111;-84
2022/03/05 01:01:02;;;;;;;2.58;1.65;;;;;;;-0.02;56.77;99549.88;5057173;28;20500;-83
2022/03/05 01:03:33;;;;;;;2.58;1.58;;;;;;;0.02;56.70;99568.81;5056617;28;20057;-81
2022/03/05 01:06:00;;;;;;;3.60;1.65;;;;;;;0.00;57.12;99566.22;5057317;28;20061;-83
2022/03/05 01:08:27;;;;;;;3.50;1.65;;;;;;;-0.03;56.67;99548.97;5057395;28;20053;-83
2022/03/05 01:10:54;;;;;;;2.83;1.50;;;;;;;0.02;56.81;99569.69;5056409;28;20102;-82
2022/03/05 01:13:20;;;;;;;3.67;1.90;;;;;;;0.03;56.80;99566.31;5056139;28;20147;-83
2022/03/05 01:15:47;;;;;;;2.05;1.70;;;;;;;0.05;56.81;99561.25;5057065;28;20099;-81
2022/03/05 01:18:14;;;;;;;2.17;1.63;;;;;;;0.05;56.88;99572.41;5056133;28;20060;-83
2022/03/05 01:20:41;;;;;;;3.22;2.05;;;;;;;-0.11;57.60;99539.19;5054462;28;20077;-82
2022/03/05 01:23:08;;;;;;;2.55;1.58;;;;;;;0.02;57.47;99555.97;5054746;28;20053;-80
2022/03/05 01:25:36;;;;;;;2.25;1.55;;;;;;;0.01;57.66;99552.53;5045519;28;20053;-80
2022/03/05 01:28:03;;;;;;;2.08;1.40;;;;;;;0.06;57.68;99571.56;5043964;28;20528;-83
2022/03/05 01:30:30;;;;;;;2.25;1.33;;;;;;;-0.14;58.22;99545.09;5046608;28;20053;-82
2022/03/05 01:32:57;;;;;;;5.47;1.95;;;;;;;0.01;58.22;99556.81;5056201;28;20061;-84
2022/03/05 01:35:24;;;;;;;4.05;1.65;;;;;;;-0.06;58.46;99571.09;5048082;28;20081;-83
2022/03/05 01:37:51;;;;;;;2.92;1.60;;;;;;;-0.13;58.54;99545.97;5036278;28;20065;-83
2022/03/05 01:40:18;;;;;;;2.47;1.90;;;;;;;-0.02;58.19;99562.69;5036131;28;20052;-80
2022/03/05 01:42:45;;;;;;;3.20;1.88;;;;;;;-0.07;58.47;99562.50;5036089;28;20532;-81
2022/03/05 01:45:13;;;;;;;3.65;2.42;;;;;;;-0.16;58.62;99551.84;5035539;28;20081;-81
2022/03/05 01:47:41;;;;;;;2.33;2.05;;;;;;;-0.17;58.79;99565.50;5035269;28;20429;-81
2022/03/05 01:50:09;;;;;;;3.47;1.88;;;;;;;-0.21;59.09;99553.38;5036147;28;20103;-82
2022/03/05 01:52:36;;;;;;;2.58;1.70;;;;;;;-0.26;58.99;99544.56;5036566;28;20049;-82
2022/03/05 01:55:04;;;;;;;3.35;1.85;;;;;;;-0.16;58.88;99561.25;5035539;28;20101;-82
2022/03/05 01:57:30;;;;;;;3.10;1.70;;;;;;;-0.17;58.92;99572.31;5067971;28;20140;-84
2022/03/05 01:59:59;;;;;;;2.55;1.60;;;;;;;-0.17;59.10;99559.47;5035332;28;20461;-83
2022/03/05 02:02:26;;;;;;;2.33;1.85;;;;;;;-0.11;58.77;99564.88;5034575;28;20049;-84
2022/03/05 02:04:53;;;;;;;2.75;1.60;;;;;;;-0.15;58.55;99555.28;5067843;28;20476;-84
2022/03/05 02:07:20;;;;;;;2.20;1.60;;;;;;;-0.23;59.09;99555.00;5035832;28;20057;-85
2022/03/05 02:09:47;;;;;;;1.85;1.58;;;;;;;-0.18;59.31;99553.47;5036217;28;20064;-83
2022/03/05 02:12:14;;;;;;;1.80;1.58;;;;;;;-0.13;59.25;99551.09;5035201;28;20092;-82
2022/03/05 02:14:41;;;;;;;1.95;1.50;;;;;;;-0.22;59.30;99542.19;5035890;28;20493;-82
2022/03/05 02:17:10;;;;;;;3.10;2.00;;;;;;;-0.19;59.13;99546.59;5073025;28;20053;-82
2022/03/05 02:19:41;;;;;;;2.42;1.85;;;;;;;-0.05;59.40;99566.00;5034725;28;20104;-80
2022/03/05 02:22:10;;;;;;;3.63;2.42;;;;;;;-0.07;59.74;99570.19;5033698;28;20058;-80
2022/03/05 02:24:38;;;;;;;4.18;2.20;;;;;;;-0.03;59.89;99568.63;5035123;28;20119;-81
2022/03/05 02:27:07;;;;;;;3.35;1.77;;;;;;;-0.09;60.22;99574.38;5035060;28;20053;-81
2022/03/05 02:29:35;;;;;;;3.15;2.20;;;;;;;-0.13;60.37;99575.09;5035131;28;20454;-82
2022/03/05 02:32:02;;;;;;;2.65;2.00;;;;;;;-0.27;60.74;99550.53;5034994;28;20057;-83
2022/03/05 02:34:30;;;;;;;3.05;2.20;;;;;;;-0.11;60.98;99575.13;5034877;28;20532;-81
2022/03/05 02:36:57;;;;;;;4.38;2.30;;;;;;;-0.17;60.86;99564.63;5034743;28;20568;-81
2022/03/05 02:39:24;;;;;;;3.97;2.40;;;;;;;-0.20;61.35;99557.66;5034368;28;20520;-82
2022/03/05 02:41:56;;;;;;;4.35;2.83;;;;;;;-0.12;61.23;99571.72;5034475;28;20501;-82
2022/03/05 02:44:23;;;;;;;5.85;2.55;;;;;;;0.03;61.02;99586.00;5034361;28;20152;-83
2022/03/05 02:46:51;;;;;;;3.90;2.83;;;;;;;0.00;61.31;99573.91;5034413;28;20057;-81
2022/03/05 02:49:18;;;;;;;4.75;2.30;;;;;;;-0.01;61.08;99588.41;5034469;28;20060;-81
2022/03/05 02:51:45;;;;;;;4.90;2.53;;;;;;;-0.18;61.31;99553.47;5034743;28;20053;-81
2022/03/05 02:54:12;;;;;;;5.75;2.35;;;;;;;-0.16;61.40;99558.69;5034322;28;20563;-80
2022/03/05 02:56:39;;;;;;;4.03;2.17;;;;;;;-0.17;61.32;99570.66;5036416;28;20045;-81
2022/03/05 02:59:06;;;;;;;4.55;2.63;;;;;;;-0.16;60.96;99548.41;5034573;28;20045;-80
2022/03/05 03:01:33;;;;;;;5.68;2.72;;;;;;;-0.02;61.00;99585.81;5034298;28;20108;-83
2022/03/05 03:04:02;;;;;;;4.97;2.85;;;;;;;0.06;61.11;99579.28;5034122;28;20103;-80
2022/03/05 03:06:30;;;;;;;4.90;2.35;;;;;;;-0.02;60.68;99589.25;5034102;28;20065;-80
2022/03/05 03:08:57;;;;;;;2.90;1.63;;;;;;;-0.04;60.61;99588.31;5034451;28;20053;-81
2022/03/05 03:11:23;;;;;;;3.55;2.03;;;;;;;-0.27;60.77;99553.97;5034480;28;20103;-80
2022/03/05 03:13:50;;;;;;;2.70;1.58;;;;;;;-0.09;60.21;99576.09;5033984;28;20502;-81
2022/03/05 03:16:17;;;;;;;3.58;1.70;;;;;;;-0.19;60.42;99576.50;5016921;28;20057;-82
2022/03/05 03:18:44;;;;;;;5.63;2.35;;;;;;;-0.12;60.35;99588.81;5034243;28;20049;-81
2022/03/05 03:21:12;;;;;;;3.97;2.28;;;;;;;-0.25;59.95;99572.88;5034522;28;20055;-82
2022/03/05 03:23:39;;;;;;;2.30;1.70;;;;;;;-0.13;59.73;99598.22;5035210;28;20056;-81
2022/03/05 03:26:05;;;;;;;3.47;1.60;;;;;;;-0.18;59.98;99581.72;5034916;28;20064;-84
2022/03/05 03:28:32;;;;;;;3.72;1.90;;;;;;;-0.16;59.62;99589.50;5034464;28;20058;-82
2022/03/05 03:31:00;;;;;;;2.45;1.73;;;;;;;-0.11;59.22;99622.22;5045840;28;20053;-82
2022/03/05 03:33:27;;;;;;;3.53;1.80;;;;;;;-0.16;59.17;99603.19;5047842;28;20083;-81
2022/03/05 03:35:54;;;;;;;2.97;1.63;;;;;;;-0.10;58.84;99605.16;5048484;28;20529;-80
2022/03/05 03:38:21;;;;;;;0.82;0.82;;;;;;;-0.16;58.42;99616.03;5049326;28;20127;-84
2022/03/05 03:40:48;;;;;;;1.45;1.27;;;;;;;-0.17;58.54;99610.81;5048119;28;20053;-83
2022/03/05 03:43:15;;;;;;;2.20;1.35;;;;;;;-0.19;58.75;99591.91;5048478;28;20059;-85
2022/03/05 03:45:42;;;;;;;2.58;1.33;;;;;;;-0.22;58.32;99587.53;5043567;28;20073;-85
2022/03/05 03:48:09;;;;;;;1.90;1.17;;;;;;;-0.10;58.49;99607.72;5048061;28;20131;-84
2022/03/05 03:50:36;;;;;;;2.78;1.27;;;;;;;-0.08;58.49;99606.09;5060048;28;20060;-85
2022/03/05 03:53:03;;;;;;;1.80;1.00;;;;;;;-0.12;58.86;99615.34;5050162;28;20072;-86
2022/03/05 03:55:30;;;;;;;2.90;1.40;;;;;;;-0.13;58.70;99608.47;5037413;28;20152;-82
2022/03/05 03:57:57;;;;;;;1.83;1.23;;;;;;;-0.27;58.62;99564.25;5033842;28;20049;-83
2022/03/05 04:00:24;;;;;;;3.63;1.60;;;;;;;-0.17;58.90;99585.16;5035040;28;20077;-81
2022/03/05 04:02:51;;;;;;;2.00;1.35;;;;;;;-0.03;58.50;99608.03;5039106;28;20084;-82
2022/03/05 04:05:19;;;;;;;1.23;1.02;;;;;;;-0.03;58.55;99599.44;5035391;28;20077;-84
2022/03/05 04:10:31;;;;;;;2.20;1.40;;;;;;;-0.05;59.01;99607.09;5033566;28;20144;-83
2022/03/05 04:12:58;;;;;;;1.65;1.20;;;;;;;0.02;59.03;99612.47;5034533;28;20096;-83
2022/03/05 04:15:25;;;;;;;1.40;1.30;;;;;;;0.06;59.00;99607.53;5032722;28;20502;-84
2022/03/05 04:17:52;;;;;;;1.40;1.05;;;;;;;0.12;58.93;99623.19;5033143;28;20049;-82
2022/03/05 04:20:19;;;;;;;1.25;1.10;;;;;;;-0.09;59.72;99591.50;5033579;28;20052;-83
2022/03/05 04:22:46;;;;;;;1.63;1.08;;;;;;;-0.05;59.68;99606.22;5035794;28;20045;-79
2022/03/05 04:25:13;;;;;;;1.58;1.27;;;;;;;-0.32;60.32;99599.13;5035252;28;20092;-81
2022/03/05 04:27:41;;;;;;;1.58;1.40;;;;;;;-0.05;60.36;99640.47;5038828;28;20516;-83
2022/03/05 04:30:08;;;;;;;2.05;1.08;;;;;;;-0.05;61.08;99626.75;5043850;28;20052;-82
2022/03/05 04:32:35;;;;;;;1.70;1.30;;;;;;;-0.12;61.00;99637.59;5069410;28;20049;-81
2022/03/05 04:35:02;;;;;;;3.75;1.50;;;;;;;-0.11;61.32;99644.47;5073522;28;20137;-79
2022/03/05 04:37:29;;;;;;;1.67;1.42;;;;;;;-0.12;60.68;99660.69;5067914;28;20421;-82
2022/03/05 04:39:56;;;;;;;2.00;1.17;;;;;;;-0.39;59.98;99598.78;5052781;28;20079;-82
2022/03/05 04:42:23;;;;;;;0.82;0.82;;;;;;;-0.32;59.71;99629.03;5051734;28;20060;-81
2022/03/05 04:44:50;;;;;;;2.17;1.75;;;;;;;-0.32;58.99;99655.59;5056458;28;20045;-82
2022/03/05 04:47:17;;;;;;;4.88;1.20;;;;;;;-0.29;58.97;99670.25;5056644;28;20143;-82
2022/03/05 04:49:44;;;;;;;0.77;0.75;;;;;;;-0.33;58.38;99682.06;5056905;28;20489;-82
2022/03/05 04:52:11;;;;;;;3.97;1.02;;;;;;;-0.36;58.64;99663.97;5056186;28;20049;-81
2022/03/05 04:54:38;;;;;;;2.72;1.23;;;;;;;-0.29;58.85;99663.41;5055474;28;20102;-82
2022/03/05 04:57:06;;;;;;;2.33;1.00;;;;;;;-0.42;58.72;99638.91;5056280;28;20136;-81
2022/03/05 04:59:35;;;;;;;1.15;0.73;;;;;;;-0.33;58.09;99679.50;5053214;28;20047;-82
2022/03/05 05:02:03;;;;;;;1.15;0.75;;;;;;;-0.57;57.68;99634.78;5054617;28;20057;-82
2022/03/05 05:04:30;;;;;;;4.00;0.90;;;;;;;-0.49;57.67;99652.28;5055660;28;20059;-82
2022/03/05 05:06:57;;;;;;;1.00;0.80;;;;;;;-0.37;57.46;99685.28;5055714;28;20459;-81
2022/03/05 05:09:24;;;;;;;1.02;0.93;;;;;;;-0.34;57.40;99682.88;5055919;28;20056;-80
2022/03/05 05:11:51;;;;;;;2.83;1.15;;;;;;;-0.33;58.06;99674.34;5055682;28;20516;-83
2022/03/05 05:14:18;;;;;;;4.85;1.35;;;;;;;-0.30;58.27;99656.53;5054262;28;20099;-82
2022/03/05 05:16:45;;;;;;;6.40;1.50;;;;;;;-0.17;58.71;99665.66;5056095;28;20098;-82
2022/03/05 05:19:24;;;;;;;2.38;1.55;;;;;;;-0.18;58.89;99676.72;5054681;28;20051;-82
2022/03/05 05:22:04;;;;;;;2.08;1.40;;;;;;;-0.15;58.91;99681.09;5056111;28;20060;-82
2022/03/05 05:24:34;;;;;;;3.15;1.40;;;;;;;-0.10;58.38;99700.16;5056314;28;20144;-82
2022/03/05 05:27:03;;;;;;;3.25;1.85;;;;;;;-0.19;58.60;99664.69;5056767;28;20152;-82
2022/03/05 05:29:30;;;;;;;3.72;1.33;;;;;;;-0.05;57.50;99681.56;5055806;28;20072;-82
2022/03/05 05:32:10;;;;;;;1.83;0.93;;;;;;;-0.09;57.04;99699.34;5056271;28;20139;-81
2022/03/05 05:34:39;;;;;;;0.88;0.73;;;;;;;-0.16;56.82;99676.78;5055718;28;20126;-80
2022/03/05 05:37:13;;;;;;;3.97;1.13;;;;;;;-0.31;56.63;99657.34;5039371;28;20049;-82
2022/03/05 05:39:41;;;;;;;3.20;1.08;;;;;;;-0.03;57.01;99686.75;5055424;28;20084;-82
2022/03/05 05:42:08;;;;;;;1.77;1.05;;;;;;;-0.01;55.92;99683.44;5055602;28;20144;-83
2022/03/05 05:44:35;;;;;;;3.50;1.27;;;;;;;-0.28;55.84;99643.75;5054619;28;20535;-82
2022/03/05 05:47:04;;;;;;;0.70;0.70;;;;;;;0.08;55.39;99693.22;5055920;28;20061;-83
2022/03/05 05:49:31;;;;;;;3.10;0.90;;;;;;;-0.03;54.59;99674.78;5055456;28;20049;-83
2022/03/05 05:51:59;;;;;;;2.97;1.17;;;;;;;0.14;54.08;99696.06;5056231;28;20099;-80
2022/03/05 05:54:26;;;;;;;2.53;0.88;;;;;;;0.13;53.95;99691.75;5055418;28;20063;-80
2022/03/05 05:56:53;;;;;;;3.50;1.10;;;;;;;0.12;53.74;99669.44;5054806;28;20063;-83
2022/03/05 05:59:20;;;;;;;3.40;1.15;;;;;;;0.08;53.85;99652.13;5054473;28;20052;-84
2022/03/05 06:01:47;;;;;;;3.25;1.30;;;;;;;0.16;53.25;99665.31;5053626;28;20521;-83
2022/03/05 06:04:14;;;;;;;1.23;0.80;;;;;;;0.15;53.33;99685.00;5054992;28;20397;-82
2022/03/05 06:06:43;;;;;;;2.63;1.33;;;;;;;0.34;53.44;99688.31;5051053;28;20626;-82
2022/03/05 06:09:11;;;;;;;3.10;1.33;;;;;;;0.36;52.81;99696.97;5044853;28;20148;-82
2022/03/05 06:11:39;;;;;;;3.15;1.00;;;;;;;0.46;52.56;99699.09;5054638;28;20044;-81
2022/03/05 06:14:06;;;;;;;3.40;1.58;;;;;;;0.51;52.55;99694.16;5054761;28;20064;-81
2022/03/05 06:16:33;;;;;;;1.23;0.80;;;;;;;0.64;52.81;99687.81;5054691;28;20063;-83
2022/03/05 06:19:00;;;;;;;4.10;1.00;;;;;;;0.53;52.63;99672.81;5054878;28;20053;-78
2022/03/05 06:21:28;;;;;;;1.25;1.05;;;;;;;0.45;52.35;99655.34;5053661;28;20076;-83
2022/03/05 06:23:55;;;;;;;7.13;3.08;;;;;;;0.69;52.35;99692.34;5057045;28;20123;-83
2022/03/05 06:26:22;;;;;;;1.35;1.02;;;;;;;0.69;52.24;99682.03;5057237;28;20048;-81
2022/03/05 06:28:50;;;;;;;1.42;1.10;;;;;;;0.78;52.01;99696.97;5055229;28;20459;-81
2022/03/05 06:31:18;;;;;;;1.20;1.00;;;;;;;0.60;51.48;99718.53;5053769;28;20053;-83
2022/03/05 06:33:44;;;;;;;2.95;1.17;;;;;;;0.08;51.83;99605.91;5054011;28;20421;-82
2022/03/05 06:36:12;;;;;;;3.45;1.20;;;;;;;0.72;51.50;99689.88;5057537;28;20076;-81
2022/03/05 06:38:44;;;;;;;1.70;1.05;;;;;;;0.81;51.09;99699.63;5057066;28;20057;-82
2022/03/05 06:41:11;;;;;;;3.55;1.42;;;;;;;0.87;51.34;99712.75;5056421;28;20048;-82
2022/03/05 06:43:38;;;;;;;5.75;2.70;;;;;;;0.93;51.07;99720.72;5054042;28;20425;-81
2022/03/05 06:46:05;;;;;;;0.88;0.80;;;;;;;0.91;50.78;99706.91;5053726;28;20053;-81
2022/03/05 06:48:32;;;;;;;4.07;1.17;;;;;;;0.75;50.55;99715.72;5054623;28;20103;-82
2022/03/05 06:50:59;;;;;;;0.60;0.60;;;;;;;0.80;50.09;99724.50;5060387;28;20056;-80
2022/03/05 06:53:26;;;;;;;1.58;0.57;;;;;;;0.67;49.95;99693.97;5054397;28;20112;-81
2022/03/05 06:55:53;;;;;;;3.53;1.20;;;;;;;0.72;50.10;99694.13;5053459;28;20060;-81
2022/03/05 06:58:20;;;;;;;3.60;1.63;;;;;;;0.97;49.68;99670.28;5054787;28;20061;-82
2022/03/05 07:00:47;;;;;;;1.88;0.90;;;;;;;1.10;49.65;99667.34;5054749;28;20056;-82
2022/03/05 07:03:14;;;;;;;3.05;1.65;;;;;;;1.25;50.84;99686.75;5054998;28;20118;-81
2022/03/05 07:05:41;;;;;;;2.20;1.65;;;;;;;1.23;51.30;99694.41;5055064;28;20044;-81
2022/03/05 07:08:08;;;;;;;4.13;2.05;;;;;;;1.29;51.70;99701.47;5054595;28;20059;-81
2022/03/05 07:10:35;;;;;;;3.65;1.83;;;;;;;1.19;52.01;99697.69;5054433;28;20151;-81
2022/03/05 07:13:02;;;;;;;3.15;1.90;;;;;;;0.77;52.38;99629.19;5057023;28;20061;-81
2022/03/05 07:15:29;;;;;;;9.90;1.90;;;;;;;1.11;52.77;99673.38;5055086;28;20061;-81
2022/03/05 07:17:56;;;;;;;7.82;2.13;;;;;;;1.16;53.10;99679.53;5064743;28;20048;-79
2022/03/05 07:20:23;;;;;;;4.88;1.77;;;;;;;1.31;53.12;99716.19;5070135;28;20053;-79
2022/03/05 07:22:50;;;;;;;5.65;1.98;;;;;;;1.55;52.90;99717.88;5070289;28;20065;-80
2022/03/05 07:25:17;;;;;;;5.38;1.88;;;;;;;1.76;52.41;99708.38;5064320;28;20053;-85
2022/03/05 07:27:44;;;;;;;5.10;2.20;;;;;;;1.67;52.48;99684.00;5053649;28;20472;-82
2022/03/05 07:30:11;;;;;;;2.90;2.20;;;;;;;1.77;52.52;99705.00;5053263;28;20060;-83
2022/03/05 07:32:38;;;;;;;3.20;2.20;;;;;;;1.78;52.68;99722.19;5054618;28;20505;-81
2022/03/05 07:35:07;;;;;;;6.70;3.03;;;;;;;1.56;53.27;99730.84;5053288;28;20052;-80
2022/03/05 07:37:34;;;;;;;3.83;2.15;;;;;;;1.56;53.37;99705.09;5054721;28;20143;-80
2022/03/05 07:40:02;;;;;;;5.65;2.80;;;;;;;1.67;53.23;99715.78;5053674;28;20087;-80
2022/03/05 07:42:29;;;;;;;8.40;2.85;;;;;;;1.60;53.04;99696.66;5054530;28;20068;-81
2022/03/05 07:44:56;;;;;;;4.95;2.30;;;;;;;1.62;53.01;99701.88;5053061;28;20061;-80
2022/03/05 07:47:23;;;;;;;7.32;2.25;;;;;;;2.04;52.32;99705.09;5053070;28;20053;-81
2022/03/05 07:49:50;;;;;;;4.75;2.33;;;;;;;2.02;52.14;99703.28;5052827;28;20052;-82
2022/03/05 07:52:17;;;;;;;5.53;2.20;;;;;;;2.07;51.70;99694.03;5035342;28;20411;-82
2022/03/05 07:54:44;;;;;;;5.05;2.15;;;;;;;2.00;51.47;99692.03;5051495;28;20440;-85
2022/03/05 07:57:12;;;;;;;7.00;2.40;;;;;;;2.03;51.89;99715.34;5052187;28;20060;-80
2022/03/05 07:59:39;;;;;;;6.18;2.63;;;;;;;2.09;52.05;99707.84;5017362;28;20467;-81
2022/03/05 08:02:07;;;;;;;4.82;2.20;;;;;;;2.01;51.66;99696.38;5052367;28;20147;-81
2022/03/05 08:04:35;;;;;;;6.25;2.67;;;;;;;2.09;51.67;99712.09;5033801;28;20085;-81
2022/03/05 08:07:23;;;;;;;3.83;1.92;;;;;;;1.90;51.37;99677.09;5041351;28;20049;-81
2022/03/05 08:09:50;;;;;;;3.97;2.65;;;;;;;1.73;51.94;99666.22;5055514;28;20060;-81
2022/03/05 08:12:17;;;;;;;5.13;2.50;;;;;;;1.82;51.83;99706.03;5052690;28;20110;-81
2022/03/05 08:14:44;;;;;;;4.03;2.20;;;;;;;1.88;51.99;99720.84;5055066;28;20064;-83
2022/03/05 08:17:12;;;;;;;5.85;2.40;;;;;;;1.90;51.92;99726.06;5053224;28;20052;-81
2022/03/05 08:19:39;;;;;;;6.43;2.83;;;;;;;1.94;51.75;99712.47;5073642;28;20052;-80
2022/03/05 08:22:21;;;;;;;3.70;2.40;;;;;;;2.11;51.85;99713.03;5060065;28;20058;-81
2022/03/05 08:24:48;;;;;;;4.53;1.92;;;;;;;2.29;50.94;99721.41;5053461;28;20061;-82
2022/03/05 08:27:15;;;;;;;7.53;2.30;;;;;;;2.29;51.16;99738.59;5056530;28;20057;-85
2022/03/05 08:29:43;;;;;;;7.00;2.30;;;;;;;2.14;51.19;99716.59;5051257;28;20061;-82
2022/03/05 08:32:12;;;;;;;6.00;2.30;;;;;;;2.04;51.52;99728.31;5051258;28;20053;-82
2022/03/05 08:34:39;;;;;;;7.13;2.50;;;;;;;1.97;51.90;99715.13;5051226;28;20051;-82
2022/03/05 08:37:06;;;;;;;6.22;2.75;;;;;;;1.81;51.75;99709.44;5051490;28;20045;-81
2022/03/05 08:39:33;;;;;;;3.72;2.08;;;;;;;1.96;51.89;99741.72;5015214;28;20140;-80
2022/03/05 08:42:01;;;;;;;4.68;2.80;;;;;;;1.77;52.58;99728.19;5032698;28;20057;-81
2022/03/05 08:44:28;;;;;;;3.85;2.42;;;;;;;1.44;52.89;99678.88;5048085;28;20522;-82
2022/03/05 08:46:55;;;;;;;5.00;2.65;;;;;;;1.64;52.63;99684.78;5034854;28;20045;-82
2022/03/05 08:49:22;;;;;;;5.07;3.30;;;;;;;1.82;52.69;99718.91;5051715;28;20068;-81
2022/03/05 08:51:50;;;;;;;4.95;2.65;;;;;;;1.93;52.89;99749.34;5052359;28;20052;-81
2022/03/05 08:54:18;;;;;;;3.25;2.33;;;;;;;1.82;53.04;99734.34;5052829;28;20045;-83
2022/03/05 08:56:47;;;;;;;7.32;2.35;;;;;;;1.73;53.27;99730.59;5052836;28;20512;-83
2022/03/05 08:59:14;;;;;;;5.07;2.72;;;;;;;2.00;52.92;99735.84;5052792;28;20531;-84
2022/03/05 09:01:41;;;;;;;5.85;2.40;;;;;;;2.13;51.88;99693.34;5052593;28;20049;-83
2022/03/05 09:04:08;;;;;;;3.63;1.77;;;;;;;2.42;51.43;99721.00;5051135;28;20057;-83
2022/03/05 09:06:35;;;;;;;4.70;1.98;;;;;;;2.33;50.58;99714.66;5052409;28;20489;-81
2022/03/05 09:09:03;;;;;;;5.70;2.10;;;;;;;2.28;50.64;99740.28;5053433;28;20053;-80
2022/03/05 09:11:30;;;;;;;4.45;2.05;;;;;;;2.10;50.72;99700.97;5055416;28;20041;-81
2022/03/05 09:13:57;;;;;;;2.47;1.60;;;;;;;1.90;51.74;99746.66;5054486;28;20064;-80
2022/03/05 09:16:25;;;;;;;3.65;2.05;;;;;;;1.59;52.55;99758.38;5056121;28;20055;-84
2022/03/05 09:18:52;;;;;;;4.65;2.00;;;;;;;1.41;53.08;99722.53;5056846;28;20057;-86
2022/03/05 09:21:19;;;;;;;4.50;1.80;;;;;;;1.68;52.58;99738.16;5054861;28;20060;-83
2022/03/05 09:23:47;;;;;;;3.67;1.98;;;;;;;2.02;51.85;99747.97;5037586;28;20045;-82
2022/03/05 09:26:15;;;;;;;2.78;1.90;;;;;;;1.99;51.05;99736.69;5055205;28;20056;-80
2022/03/05 09:28:42;;;;;;;4.00;2.00;;;;;;;2.22;50.94;99747.81;5054333;28;20076;-84
2022/03/05 09:31:10;;;;;;;2.72;1.75;;;;;;;2.46;50.51;99760.66;5055768;28;20136;-84
2022/03/05 09:33:37;;;;;;;5.75;3.00;;;;;;;2.49;50.28;99754.72;5055295;28;20059;-82
2022/03/05 09:36:04;;;;;;;4.93;2.10;;;;;;;2.37;50.03;99750.91;5054036;28;20048;-83
2022/03/05 09:38:31;;;;;;;4.35;2.13;;;;;;;2.23;50.30;99757.28;5055410;28;20064;-82
2022/03/05 09:41:02;;;;;;;5.88;2.00;;;;;;;1.89;50.60;99738.03;5053563;28;20406;-82
2022/03/05 09:43:29;;;;;;;15.45;2.67;;;;;;;1.87;51.20;99762.00;5055288;28;20049;-81
2022/03/05 09:45:57;;;;;;;4.75;1.83;;;;;;;1.64;51.31;99744.00;5054797;28;20049;-81
2022/03/05 09:48:27;;;;;;;4.03;1.90;;;;;;;1.73;51.41;99769.22;5054948;28;20048;-80
2022/03/05 09:50:57;;;;;;;3.33;2.10;;;;;;;1.90;51.55;99777.56;5055124;28;20059;-79
2022/03/05 09:53:29;;;;;;;8.32;1.75;;;;;;;1.95;51.04;99769.16;5053102;28;20103;-82
2022/03/05 09:55:57;;;;;;;4.60;2.22;;;;;;;2.16;50.67;99776.81;5055328;28;20061;-83
2022/03/05 09:58:44;;;;;;;1.85;1.67;;;;;;;2.00;50.66;99741.00;5053882;28;20512;-83
2022/03/05 10:01:11;;;;;;;7.78;2.55;;;;;;;2.36;50.20;99768.91;5055388;28;20079;-83
2022/03/05 10:03:50;;;;;;;4.50;2.25;;;;;;;2.37;50.29;99760.34;5053982;28;20049;-81
2022/03/05 10:06:23;;;;;;;3.90;2.40;;;;;;;2.66;50.02;99751.00;5055074;28;20056;-79
2022/03/05 10:08:51;;;;;;;5.72;2.20;;;;;;;2.85;49.73;99768.84;5054644;28;20052;-82
2022/03/05 10:11:19;;;;;;;5.63;2.78;;;;;;;2.55;49.54;99740.34;5054565;28;20110;-81
2022/03/05 10:13:47;;;;;;;4.93;3.00;;;;;;;2.64;49.90;99771.56;5052740;28;20524;-82
2022/03/05 10:16:32;;;;;;;3.50;2.28;;;;;;;2.39;49.86;99763.88;5054337;28;20061;-81
2022/03/05 10:19:18;;;;;;;9.98;3.83;;;;;;;2.01;50.51;99743.63;5051632;28;20249;-80
2022/03/05 10:22:04;;;;;;;5.70;3.40;;;;;;;1.94;50.76;99772.59;5052567;28;20056;-81
2022/03/05 10:24:39;;;;;;;2.65;2.28;;;;;;;1.90;51.24;99796.47;5060211;28;20052;-83
2022/03/05 10:27:09;;;;;;;3.22;1.98;;;;;;;1.65;51.20;99740.59;5057765;28;20155;-84
2022/03/05 10:29:39;;;;;;;2.25;1.67;;;;;;;1.60;51.02;99737.84;5055431;28;20134;-84
2022/03/05 10:32:12;;;;;;;2.20;2.00;;;;;;;1.80;51.33;99792.66;5055813;28;20057;-81
2022/03/05 10:34:42;;;;;;;2.72;1.60;;;;;;;1.69;51.54;99765.63;5055363;28;20044;-82
2022/03/05 10:37:11;;;;;;;2.22;1.80;;;;;;;1.70;51.77;99780.28;5053169;28;20052;-83
2022/03/05 10:39:38;;;;;;;7.03;2.17;;;;;;;1.63;51.40;99752.53;5053265;28;20402;-82
2022/03/05 10:42:20;;;;;;;1.83;1.70;;;;;;;1.80;51.18;99777.22;5053575;28;20103;-81
2022/03/05 10:45:09;;;;;;;3.38;1.65;;;;;;;1.93;50.86;99755.34;5055067;28;20053;-83
2022/03/05 10:47:43;;;;;;;2.47;1.30;;;;;;;1.79;50.86;99749.72;5055038;28;20575;-83
2022/03/05 10:50:24;;;;;;;4.82;1.80;;;;;;;1.89;50.94;99793.84;5053397;28;20500;-83
2022/03/05 10:52:58;;;;;;;4.25;1.90;;;;;;;1.81;51.11;99767.81;5055843;28;20053;-83
2022/03/05 10:55:34;;;;;;;1.80;1.40;;;;;;;1.77;50.75;99777.13;5054982;28;20052;-83
2022/03/05 10:58:06;;;;;;;3.33;1.60;;;;;;;1.66;50.83;99751.75;5057380;28;20462;-82
2022/03/05 11:00:33;;;;;;;1.88;1.58;;;;;;;1.76;50.75;99795.06;5057466;28;20049;-81
2022/03/05 11:03:02;;;;;;;3.78;2.10;;;;;;;1.75;50.82;99777.88;5074165;28;20076;-79
2022/03/05 11:05:30;;;;;;;4.18;1.73;;;;;;;1.55;50.91;99751.38;5050196;28;20412;-80
2022/03/05 11:07:56;;;;;;;5.47;1.98;;;;;;;1.62;51.28;99766.25;5067941;28;20495;-82
2022/03/05 11:10:29;;;;;;;2.30;1.40;;;;;;;1.78;50.87;99788.28;5054176;28;20466;-81
2022/03/05 11:12:59;;;;;;;4.75;2.10;;;;;;;1.79;51.15;99783.19;5054018;28;20064;-82
2022/03/05 11:15:27;;;;;;;5.10;2.25;;;;;;;1.74;51.42;99789.88;5053821;28;20052;-81
2022/03/05 11:18:01;;;;;;;3.05;1.45;;;;;;;1.48;51.54;99759.69;5049518;28;20056;-83
2022/03/05 11:20:32;;;;;;;2.10;1.50;;;;;;;1.37;51.71;99767.00;5037008;28;20045;-81
2022/03/05 11:23:04;;;;;;;9.13;2.75;;;;;;;1.28;51.96;99743.50;5068017;28;20148;-81
2022/03/05 11:25:36;;;;;;;2.03;1.45;;;;;;;1.55;51.81;99787.41;5035109;28;20049;-80
2022/03/05 11:28:05;;;;;;;;;;;;;;;1.47;51.88;99797.44;5044684;28;20061;-81
2022/03/05 11:30:41;;;;;;;5.65;2.15;;;;;;;1.36;51.93;99773.84;5034310;28;19924;-82
2022/03/05 11:33:22;;;;;;;4.18;1.85;;;;;;;1.42;51.83;99786.97;5034134;28;20049;-82
2022/03/05 11:35:49;;;;;;;4.60;1.90;;;;;;;1.47;52.10;99791.41;5034257;28;20060;-82
2022/03/05 11:38:35;;;;;;;2.97;2.05;;;;;;;1.29;52.01;99778.69;5033556;28;20049;-81
2022/03/05 11:41:27;;;;;;;4.75;2.28;;;;;;;1.44;52.27;99787.00;5033135;28;20107;-85
2022/03/05 11:44:10;;;;;;;6.25;2.88;;;;;;;1.39;52.40;99773.94;5031683;28;20057;-83
2022/03/05 11:46:38;;;;;;;6.93;3.10;;;;;;;1.46;51.81;99787.94;5033874;28;20053;-83
2022/03/05 11:49:11;;;;;;;4.45;2.13;;;;;;;1.53;51.77;99812.25;5036938;28;20050;-80